Time;durP1;ratioP1;P1;durP2;ratioP2;P2;SDS_P1;SDS_P2;PMS_P1;PMS_P2;Temp;Humidity;BMP_temperature;BMP_pressure;BME280_temperature;BME280_humidity;BME280_pressure;Samples;Min_cycle;Max_cycle;Signal;HPM_P1;HPM_P2
2020/12/05 00:02:16;;;;;;;18.95;13.40;;;1.70;93.00;;;;;;4929429;28;20097;-81
2020/12/05 00:04:42;;;;;;;19.50;13.60;;;1.70;92.80;;;;;;4957290;28;20027;-82
2020/12/05 00:07:08;;;;;;;21.92;14.40;;;1.70;92.90;;;;;;4938928;28;21121;-82
2020/12/05 00:09:33;;;;;;;15.43;9.68;;;1.90;93.20;;;;;;4918717;28;20049;-81
2020/12/05 00:12:09;;;;;;;20.85;13.13;;;2.00;93.00;;;;;;4932120;28;20502;-81
2020/12/05 00:14:34;;;;;;;12.10;8.50;;;2.10;92.70;;;;;;4931866;28;20107;-82
2020/12/05 00:17:00;;;;;;;12.15;9.07;;;2.10;92.70;;;;;;4932477;28;20129;-82
2020/12/05 00:19:26;;;;;;;13.32;9.82;;;2.20;92.70;;;;;;4932763;28;20035;-82
2020/12/05 00:21:54;;;;;;;14.77;10.05;;;2.20;92.40;;;;;;4961877;28;20049;-82
2020/12/05 00:24:20;;;;;;;13.45;9.35;;;2.20;92.40;;;;;;4957272;28;20315;-82
2020/12/05 00:26:49;;;;;;;13.57;9.63;;;2.20;92.40;;;;;;4943444;28;20516;-82
2020/12/05 00:29:15;;;;;;;14.73;10.60;;;2.20;92.20;;;;;;4921452;28;20495;-82
2020/12/05 00:31:40;;;;;;;11.57;8.90;;;2.20;92.30;;;;;;4941535;28;20038;-82
2020/12/05 00:34:06;;;;;;;17.35;12.23;;;2.20;92.30;;;;;;4929714;28;20027;-82
2020/12/05 00:36:31;;;;;;;14.35;11.80;;;2.20;92.30;;;;;;4935615;28;20142;-84
2020/12/05 00:38:57;;;;;;;16.45;12.05;;;2.10;92.60;;;;;;4938452;28;20376;-83
2020/12/05 00:41:22;;;;;;;16.70;11.40;;;2.10;92.80;;;;;;4943471;28;20031;-83
2020/12/05 00:43:48;;;;;;;19.77;13.50;;;2.10;92.80;;;;;;4955933;28;20082;-83
2020/12/05 00:46:13;;;;;;;21.17;14.02;;;2.10;92.90;;;;;;4922141;28;20118;-83
2020/12/05 00:48:39;;;;;;;24.08;16.05;;;2.10;93.10;;;;;;4945841;28;20034;-83
2020/12/05 00:51:04;;;;;;;19.55;14.27;;;2.10;93.10;;;;;;4947346;28;20027;-83
2020/12/05 00:53:30;;;;;;;19.30;13.45;;;2.20;93.10;;;;;;4953352;28;20424;-82
2020/12/05 00:55:56;;;;;;;19.80;12.35;;;2.20;93.00;;;;;;4913869;28;20459;-83
2020/12/05 00:58:21;;;;;;;20.63;12.88;;;2.20;93.10;;;;;;4954803;28;20054;-83
2020/12/05 01:00:47;;;;;;;21.48;13.35;;;2.10;93.20;;;;;;4959808;28;20122;-83
2020/12/05 01:03:13;;;;;;;19.10;12.50;;;2.30;93.00;;;;;;4915899;28;20049;-82
2020/12/05 01:05:38;;;;;;;19.13;13.00;;;2.40;92.90;;;;;;4941244;28;20042;-83
2020/12/05 01:08:04;;;;;;;11.80;8.48;;;2.40;92.60;;;;;;4913786;28;20030;-83
2020/12/05 01:10:30;;;;;;;17.15;12.75;;;2.40;92.80;;;;;;4917459;28;20126;-82
2020/12/05 01:12:55;;;;;;;14.15;10.43;;;2.40;92.70;;;;;;4944138;28;20038;-83
2020/12/05 01:15:21;;;;;;;14.48;10.30;;;2.50;92.50;;;;;;4932124;28;20027;-83
2020/12/05 01:17:46;;;;;;;12.63;9.85;;;2.50;92.40;;;;;;4931180;28;20487;-83
2020/12/05 01:20:12;;;;;;;13.75;9.75;;;2.50;92.30;;;;;;4913431;28;20039;-83
2020/12/05 01:22:37;;;;;;;11.65;9.43;;;2.50;92.30;;;;;;4939202;28;20027;-82
2020/12/05 01:25:03;;;;;;;14.70;9.88;;;2.50;92.20;;;;;;4952427;28;20030;-83
2020/12/05 01:27:29;;;;;;;12.75;9.13;;;2.50;92.30;;;;;;4915652;28;20093;-82
2020/12/05 01:29:54;;;;;;;13.43;10.30;;;2.50;92.00;;;;;;4941735;28;20405;-83
2020/12/05 01:32:20;;;;;;;15.73;10.60;;;2.60;92.20;;;;;;4930477;28;20037;-83
2020/12/05 01:34:45;;;;;;;18.58;11.23;;;2.60;91.90;;;;;;4911942;28;20041;-83
2020/12/05 01:37:11;;;;;;;19.83;12.82;;;2.60;91.90;;;;;;4928506;28;20121;-83
2020/12/05 01:39:37;;;;;;;14.38;11.07;;;2.50;92.20;;;;;;4929737;28;20062;-83
2020/12/05 01:42:02;;;;;;;19.58;12.52;;;2.50;92.40;;;;;;4931919;28;20038;-83
2020/12/05 01:44:29;;;;;;;17.70;12.82;;;2.40;92.50;;;;;;4916663;28;20077;-83
2020/12/05 01:46:55;;;;;;;20.90;12.95;;;2.40;92.70;;;;;;4934410;28;20451;-83
2020/12/05 01:49:21;;;;;;;17.77;13.40;;;2.40;92.80;;;;;;4932029;28;20054;-83
2020/12/05 01:51:46;;;;;;;18.30;12.82;;;2.40;92.90;;;;;;4961869;28;20121;-83
2020/12/05 01:54:12;;;;;;;18.40;13.13;;;2.40;92.80;;;;;;4914460;28;20146;-84
2020/12/05 01:56:38;;;;;;;20.67;12.68;;;2.40;92.90;;;;;;4911317;28;20066;-83
2020/12/05 01:59:05;;;;;;;20.52;12.52;;;2.40;92.80;;;;;;4914346;28;20510;-84
2020/12/05 02:01:30;;;;;;;21.15;13.02;;;2.40;92.90;;;;;;4916586;28;20023;-84
2020/12/05 02:03:56;;;;;;;20.85;13.38;;;2.40;93.00;;;;;;4939545;28;20038;-83
2020/12/05 02:06:26;;;;;;;21.95;14.30;;;2.40;93.10;;;;;;4931629;28;20093;-82
2020/12/05 02:09:14;;;;;;;12.90;9.10;;;2.40;93.10;;;;;;4943045;28;20475;-82
2020/12/05 02:11:41;;;;;;;14.15;8.95;;;2.50;92.90;;;;;;4959734;28;20030;-82
2020/12/05 02:14:09;;;;;;;21.45;14.50;;;2.60;92.70;;;;;;4913723;28;20039;-83
2020/12/05 02:16:35;;;;;;;13.23;8.60;;;2.70;92.70;;;;;;4921567;28;20129;-84
2020/12/05 02:19:01;;;;;;;23.17;13.63;;;2.70;92.60;;;;;;4916996;28;20111;-83
2020/12/05 02:21:28;;;;;;;19.30;13.50;;;2.60;92.60;;;;;;4958135;28;20355;-83
2020/12/05 02:23:57;;;;;;;17.38;13.35;;;2.60;92.70;;;;;;4943280;28;20034;-84
2020/12/05 02:26:23;;;;;;;14.93;10.15;;;2.70;92.80;;;;;;4931236;28;20133;-83
2020/12/05 02:28:49;;;;;;;15.85;11.32;;;2.70;92.60;;;;;;4939905;28;20150;-84
2020/12/05 02:31:15;;;;;;;13.60;9.27;;;2.80;92.40;;;;;;4933595;28;20065;-83
2020/12/05 02:33:41;;;;;;;14.57;9.75;;;2.80;92.40;;;;;;4946620;28;20037;-83
2020/12/05 02:36:06;;;;;;;11.30;8.48;;;2.80;92.30;;;;;;4918822;28;20117;-83
2020/12/05 02:38:47;;;;;;;14.52;10.57;;;2.80;92.40;;;;;;4947119;28;20042;-83
2020/12/05 02:41:12;;;;;;;19.98;13.05;;;2.80;92.40;;;;;;4934324;28;20034;-82
2020/12/05 02:43:38;;;;;;;22.08;13.68;;;2.70;92.60;;;;;;4946895;28;20390;-83
2020/12/05 02:46:03;;;;;;;23.63;13.77;;;2.70;92.70;;;;;;4929182;28;20514;-82
2020/12/05 02:48:29;;;;;;;16.55;11.98;;;2.70;92.80;;;;;;4935910;28;20030;-83
2020/12/05 02:50:54;;;;;;;12.02;8.93;;;2.80;92.80;;;;;;4943529;28;20030;-83
2020/12/05 02:53:20;;;;;;;23.25;14.32;;;2.80;92.80;;;;;;4937889;28;20029;-84
2020/12/05 02:55:45;;;;;;;19.17;13.32;;;2.80;92.60;;;;;;4931744;28;20038;-82
2020/12/05 02:58:11;;;;;;;22.33;14.65;;;2.80;92.70;;;;;;4946028;28;20030;-82
2020/12/05 03:00:37;;;;;;;14.90;8.68;;;2.80;92.70;;;;;;4947635;28;20122;-82
2020/12/05 03:03:02;;;;;;;14.15;9.75;;;2.80;92.60;;;;;;4920040;28;20076;-83
2020/12/05 03:05:28;;;;;;;13.27;8.80;;;2.90;92.50;;;;;;4943073;28;20097;-84
2020/12/05 03:07:54;;;;;;;18.92;11.65;;;2.90;92.40;;;;;;4915411;28;20038;-83
2020/12/05 03:10:20;;;;;;;40.47;26.52;;;3.00;92.40;;;;;;4935169;28;20023;-83
2020/12/05 03:12:45;;;;;;;29.08;18.90;;;2.90;92.50;;;;;;4945653;28;20399;-83
2020/12/05 03:15:11;;;;;;;23.77;16.25;;;2.90;92.70;;;;;;4910946;28;20026;-83
2020/12/05 03:17:36;;;;;;;18.42;12.70;;;2.90;92.90;;;;;;4966816;28;20023;-83
2020/12/05 03:20:02;;;;;;;26.40;16.83;;;3.00;92.70;;;;;;4966192;28;20449;-82
2020/12/05 03:22:28;;;;;;;25.45;15.80;;;3.00;92.60;;;;;;4916576;28;20023;-82
2020/12/05 03:24:54;;;;;;;20.60;14.43;;;3.00;93.00;;;;;;4943244;28;20088;-82
2020/12/05 03:27:19;;;;;;;22.50;14.65;;;3.00;92.70;;;;;;4932443;28;20042;-82
2020/12/05 03:29:45;;;;;;;19.90;14.38;;;3.00;92.90;;;;;;4942161;28;20031;-82
2020/12/05 03:32:17;;;;;;;13.43;9.38;;;3.00;93.00;;;;;;4933047;28;20037;-82
2020/12/05 03:34:43;;;;;;;15.20;9.07;;;3.00;92.80;;;;;;4923596;28;20034;-81
2020/12/05 03:37:12;;;;;;;15.13;9.88;;;3.10;92.60;;;;;;4917856;28;20513;-82
2020/12/05 03:39:37;;;;;;;17.48;11.57;;;3.10;92.50;;;;;;4930461;28;20379;-82
2020/12/05 03:42:03;;;;;;;18.92;12.70;;;3.10;92.60;;;;;;4916400;28;20031;-81
2020/12/05 03:44:28;;;;;;;21.02;13.57;;;3.00;92.70;;;;;;4934652;28;20035;-81
2020/12/05 03:46:59;;;;;;;18.92;12.75;;;3.00;92.80;;;;;;4959370;28;20035;-82
2020/12/05 03:49:31;;;;;;;21.98;13.63;;;3.00;92.70;;;;;;4916921;28;20052;-81
2020/12/05 03:52:01;;;;;;;21.25;13.07;;;3.10;92.50;;;;;;4939756;28;20058;-82
2020/12/05 03:54:26;;;;;;;15.25;9.23;;;3.20;92.50;;;;;;4934634;28;20031;-82
2020/12/05 03:56:52;;;;;;;14.45;10.07;;;3.10;92.40;;;;;;4952243;28;20126;-84
2020/12/05 03:59:17;;;;;;;13.13;9.00;;;3.20;92.30;;;;;;4934646;28;20633;-82
2020/12/05 04:01:43;;;;;;;20.77;13.27;;;3.20;92.30;;;;;;4930625;28;20038;-82
2020/12/05 04:04:08;;;;;;;15.68;9.95;;;3.20;92.20;;;;;;4933148;28;20117;-83
2020/12/05 04:06:34;;;;;;;15.35;10.35;;;3.20;92.30;;;;;;4914518;28;20061;-82
2020/12/05 04:08:59;;;;;;;16.58;11.05;;;3.20;92.30;;;;;;4928714;28;20062;-83
2020/12/05 04:11:25;;;;;;;23.70;14.30;;;3.20;92.30;;;;;;4932095;28;20121;-82
2020/12/05 04:13:50;;;;;;;22.42;12.43;;;3.10;92.40;;;;;;4930712;28;20032;-82
2020/12/05 04:16:16;;;;;;;17.92;11.85;;;3.10;92.40;;;;;;4934654;28;20026;-82
2020/12/05 04:18:41;;;;;;;20.65;13.48;;;3.10;92.40;;;;;;4944980;28;20054;-83
2020/12/05 04:21:07;;;;;;;20.90;13.10;;;3.10;92.40;;;;;;4915825;28;20483;-83
2020/12/05 04:23:33;;;;;;;10.98;8.38;;;3.10;92.40;;;;;;4932918;28;20226;-83
2020/12/05 04:25:58;;;;;;;20.73;12.85;;;3.10;92.30;;;;;;4927023;28;20058;-82
2020/12/05 04:28:24;;;;;;;20.05;12.70;;;3.10;92.30;;;;;;4937796;28;20387;-82
2020/12/05 04:30:49;;;;;;;18.20;12.52;;;3.00;92.40;;;;;;4945179;28;20030;-82
2020/12/05 04:33:15;;;;;;;19.23;12.43;;;3.00;92.50;;;;;;4930469;28;20026;-82
2020/12/05 04:35:41;;;;;;;15.65;11.00;;;3.00;92.60;;;;;;4960610;28;20567;-82
2020/12/05 04:38:07;;;;;;;22.65;15.02;;;3.10;92.50;;;;;;4916121;28;20058;-82
2020/12/05 04:40:32;;;;;;;24.55;15.80;;;3.00;92.50;;;;;;4918586;28;20395;-82
2020/12/05 04:42:58;;;;;;;23.55;14.88;;;3.00;92.60;;;;;;4933207;28;20070;-82
2020/12/05 04:45:25;;;;;;;14.15;9.10;;;3.00;92.60;;;;;;4961931;28;20034;-82
2020/12/05 04:47:50;;;;;;;11.02;7.93;;;3.00;92.50;;;;;;4935163;28;20402;-83
2020/12/05 04:50:16;;;;;;;15.70;10.57;;;3.00;92.40;;;;;;4941139;28;20022;-82
2020/12/05 04:52:45;;;;;;;15.98;8.95;;;3.10;92.40;;;;;;4939627;28;20061;-82
2020/12/05 04:55:11;;;;;;;19.67;12.23;;;3.10;92.40;;;;;;4931356;28;20031;-81
2020/12/05 04:57:45;;;;;;;15.75;9.80;;;3.10;92.40;;;;;;4912966;28;20035;-82
2020/12/05 05:00:10;;;;;;;23.00;14.25;;;3.10;92.50;;;;;;4930365;28;20061;-81
2020/12/05 05:02:40;;;;;;;16.65;10.23;;;3.10;92.50;;;;;;4933761;28;20398;-81
2020/12/05 05:05:08;;;;;;;21.20;11.50;;;3.20;92.50;;;;;;4930925;28;20398;-82
2020/12/05 05:07:34;;;;;;;19.00;10.75;;;3.20;92.30;;;;;;4932108;28;20085;-82
2020/12/05 05:10:09;;;;;;;20.17;12.80;;;3.20;92.30;;;;;;4931508;28;20035;-82
2020/12/05 05:12:36;;;;;;;18.95;9.88;;;3.20;92.40;;;;;;4959221;28;20030;-82
2020/12/05 05:15:01;;;;;;;17.88;10.85;;;3.20;92.50;;;;;;4916130;28;20442;-82
2020/12/05 05:17:27;;;;;;;23.23;13.55;;;3.20;92.50;;;;;;4934867;28;20034;-83
2020/12/05 05:19:53;;;;;;;26.77;15.75;;;3.20;92.40;;;;;;4945204;28;20085;-82
2020/12/05 05:22:22;;;;;;;22.20;13.35;;;3.10;92.40;;;;;;4927263;28;20035;-81
2020/12/05 05:25:03;;;;;;;33.85;17.75;;;3.10;92.60;;;;;;4942715;28;20094;-82
2020/12/05 05:27:29;;;;;;;31.63;16.85;;;3.10;92.50;;;;;;4934975;28;20031;-82
2020/12/05 05:29:54;;;;;;;23.38;12.85;;;3.00;92.60;;;;;;4938569;28;20039;-82
2020/12/05 05:32:27;;;;;;;23.90;13.10;;;3.10;92.60;;;;;;4956320;28;20110;-82
2020/12/05 05:35:13;;;;;;;26.58;15.90;;;3.20;92.50;;;;;;4943693;28;20090;-82
2020/12/05 05:37:40;;;;;;;26.75;13.65;;;3.10;92.50;;;;;;4932633;28;20467;-82
2020/12/05 05:40:07;;;;;;;27.85;17.90;;;3.10;92.70;;;;;;4943415;28;20487;-82
2020/12/05 05:42:37;;;;;;;19.70;11.57;;;3.20;92.70;;;;;;4934129;28;20064;-82
2020/12/05 05:45:22;;;;;;;30.73;18.13;;;3.20;92.70;;;;;;4913953;28;20065;-82
2020/12/05 05:47:49;;;;;;;24.80;14.88;;;3.20;92.60;;;;;;4930873;28;20035;-82
2020/12/05 05:50:30;;;;;;;29.25;16.83;;;3.20;92.60;;;;;;4945290;28;20224;-82
2020/12/05 05:53:03;;;;;;;22.95;13.60;;;3.20;92.60;;;;;;4941131;28;20039;-82
2020/12/05 05:55:49;;;;;;;29.63;17.02;;;3.20;92.60;;;;;;4957535;28;20054;-82
2020/12/05 05:58:18;;;;;;;31.65;18.70;;;3.10;92.70;;;;;;4960825;28;20042;-82
2020/12/05 06:00:47;;;;;;;30.65;18.27;;;3.20;92.70;;;;;;4954586;28;20026;-82
2020/12/05 06:03:21;;;;;;;33.40;17.08;;;3.20;92.90;;;;;;4943821;28;20030;-82
2020/12/05 06:05:48;;;;;;;30.10;15.80;;;3.20;92.70;;;;;;4942326;28;20387;-82
2020/12/05 06:08:21;;;;;;;26.33;15.27;;;3.30;92.70;;;;;;4916119;28;20038;-82
2020/12/05 06:10:57;;;;;;;26.48;15.60;;;3.40;92.50;;;;;;4946447;28;20093;-82
2020/12/05 06:13:24;;;;;;;;;;;3.40;92.60;;;;;;4945960;28;20031;-82
2020/12/05 06:15:50;;;;;;;;;;;3.40;92.40;;;;;;4940469;28;19910;-82
2020/12/05 06:18:15;;;;;;;24.93;14.37;;;3.50;92.40;;;;;;4934976;28;19917;-82
2020/12/05 06:20:43;;;;;;;25.98;15.18;;;3.50;92.40;;;;;;4940919;28;20027;-82
2020/12/05 06:23:09;;;;;;;23.13;14.52;;;3.40;92.40;;;;;;4946711;28;20053;-81
2020/12/05 06:25:34;;;;;;;23.73;14.55;;;3.40;92.50;;;;;;4932433;28;20026;-81
2020/12/05 06:28:05;;;;;;;26.33;13.60;;;3.40;92.50;;;;;;4919735;28;20038;-82
2020/12/05 06:30:30;;;;;;;29.40;16.40;;;3.40;92.60;;;;;;4916606;28;20110;-82
2020/12/05 06:32:56;;;;;;;26.23;15.13;;;3.50;92.70;;;;;;4927873;28;20115;-82
2020/12/05 06:35:21;;;;;;;22.63;13.52;;;3.40;92.70;;;;;;4929699;28;20026;-82
2020/12/05 06:37:50;;;;;;;29.55;16.98;;;3.40;92.60;;;;;;4944036;28;20037;-82
2020/12/05 06:40:19;;;;;;;28.27;17.75;;;3.40;92.70;;;;;;4936110;28;20031;-82
2020/12/05 06:42:46;;;;;;;22.63;14.55;;;3.40;92.60;;;;;;4945517;28;20621;-82
2020/12/05 06:45:35;;;;;;;27.90;17.08;;;3.40;92.80;;;;;;4913517;28;20142;-82
2020/12/05 06:48:09;;;;;;;26.33;15.05;;;3.40;92.80;;;;;;4964016;28;20038;-82
2020/12/05 06:50:36;;;;;;;28.95;15.63;;;3.50;92.80;;;;;;4950325;28;20030;-82
2020/12/05 06:53:20;;;;;;;30.38;16.88;;;3.50;92.80;;;;;;4917231;28;20031;-82
2020/12/05 06:55:46;;;;;;;23.98;14.50;;;3.50;92.80;;;;;;4971329;28;20035;-82
2020/12/05 06:58:12;;;;;;;24.88;14.20;;;3.50;92.60;;;;;;4916191;28;20026;-83
2020/12/05 07:00:38;;;;;;;27.50;16.48;;;3.50;92.60;;;;;;4928254;28;20027;-82
2020/12/05 07:03:05;;;;;;;26.90;16.02;;;3.50;92.50;;;;;;4913679;28;20082;-82
2020/12/05 07:05:35;;;;;;;28.80;17.85;;;3.50;92.60;;;;;;4931606;28;20201;-82
2020/12/05 07:08:02;;;;;;;27.27;16.20;;;3.40;92.60;;;;;;4955937;28;20479;-81
2020/12/05 07:10:47;;;;;;;28.00;16.13;;;3.40;92.70;;;;;;4915893;28;20031;-81
2020/12/05 07:13:14;;;;;;;25.45;16.33;;;3.40;92.70;;;;;;4947320;28;20058;-82
2020/12/05 07:15:39;;;;;;;27.15;15.90;;;3.40;92.60;;;;;;4946509;28;20108;-82
2020/12/05 07:18:05;;;;;;;27.23;16.77;;;3.30;92.70;;;;;;4955592;28;20502;-81
2020/12/05 07:20:30;;;;;;;30.92;16.88;;;3.30;92.90;;;;;;4918862;28;20015;-82
2020/12/05 07:22:56;;;;;;;25.40;15.40;;;3.30;92.90;;;;;;4960028;28;20101;-81
2020/12/05 07:25:22;;;;;;;27.77;17.38;;;3.30;92.90;;;;;;4933494;28;20035;-81
2020/12/05 07:27:47;;;;;;;31.48;16.75;;;3.40;92.90;;;;;;4946626;28;20031;-81
2020/12/05 07:30:13;;;;;;;27.80;15.98;;;3.40;92.90;;;;;;4959131;28;20574;-81
2020/12/05 07:32:40;;;;;;;35.58;18.33;;;3.40;92.80;;;;;;4947991;28;20041;-81
2020/12/05 07:35:07;;;;;;;29.77;15.57;;;3.40;92.80;;;;;;4937546;28;20095;-81
2020/12/05 07:37:36;;;;;;;26.20;15.38;;;3.40;92.90;;;;;;4942209;28;20041;-81
2020/12/05 07:40:02;;;;;;;25.10;14.95;;;3.40;92.80;;;;;;4930272;28;20042;-81
2020/12/05 07:42:32;;;;;;;28.45;17.75;;;3.40;92.80;;;;;;4931949;28;20054;-81
2020/12/05 07:45:05;;;;;;;27.63;14.93;;;3.30;92.80;;;;;;4942592;28;20027;-81
2020/12/05 07:47:30;;;;;;;27.08;15.48;;;3.30;92.90;;;;;;4940119;28;20122;-81
2020/12/05 07:49:56;;;;;;;24.30;12.38;;;3.40;92.90;;;;;;4954805;28;20118;-81
2020/12/05 07:52:22;;;;;;;28.67;16.33;;;3.40;92.90;;;;;;4932527;28;20086;-81
2020/12/05 07:55:00;;;;;;;29.33;15.45;;;3.50;92.80;;;;;;4959979;28;20042;-81
2020/12/05 07:57:30;;;;;;;24.60;13.90;;;3.40;92.90;;;;;;4947903;28;20038;-81
2020/12/05 08:00:07;;;;;;;26.55;15.88;;;3.40;92.80;;;;;;4960293;28;20031;-81
2020/12/05 08:02:35;;;;;;;23.95;14.18;;;3.40;92.80;;;;;;4934065;28;20594;-81
2020/12/05 08:05:19;;;;;;;25.02;14.63;;;3.30;93.00;;;;;;4947346;28;20027;-81
2020/12/05 08:07:45;;;;;;;24.92;13.98;;;3.30;93.00;;;;;;4946673;28;20031;-81
2020/12/05 08:10:10;;;;;;;22.92;15.07;;;3.30;93.00;;;;;;4933051;28;20483;-81
2020/12/05 08:12:54;;;;;;;25.10;13.88;;;3.30;93.10;;;;;;4965560;28;20109;-81
2020/12/05 08:15:20;;;;;;;26.70;14.52;;;3.40;93.10;;;;;;4937895;28;20181;-81
2020/12/05 08:17:45;;;;;;;23.55;14.45;;;3.50;93.10;;;;;;4958382;28;20122;-81
2020/12/05 08:20:11;;;;;;;23.33;11.27;;;3.40;93.00;;;;;;4948533;28;20030;-81
2020/12/05 08:22:37;;;;;;;20.95;12.93;;;3.50;93.40;;;;;;4931993;28;20034;-82
2020/12/05 08:25:03;;;;;;;23.42;12.27;;;3.70;93.40;;;;;;4913916;28;20114;-81
2020/12/05 08:27:28;;;;;;;20.98;12.35;;;3.80;93.50;;;;;;4916616;28;20165;-81
2020/12/05 08:29:54;;;;;;;23.23;13.82;;;3.90;93.40;;;;;;4927684;28;20383;-81
2020/12/05 08:32:22;;;;;;;21.65;11.68;;;3.90;93.40;;;;;;4929476;28;20463;-81
2020/12/05 08:34:48;;;;;;;19.50;11.52;;;4.10;93.60;;;;;;4942479;28;20114;-81
2020/12/05 08:37:23;;;;;;;21.42;12.32;;;4.30;93.70;;;;;;4916285;28;20057;-81
2020/12/05 08:39:50;;;;;;;22.50;12.98;;;4.20;93.50;;;;;;4917377;28;20062;-81
2020/12/05 08:42:16;;;;;;;18.52;11.60;;;4.30;93.80;;;;;;4934690;28;20039;-81
2020/12/05 08:44:41;;;;;;;20.77;13.15;;;4.40;93.70;;;;;;4943655;28;20031;-81
2020/12/05 08:47:07;;;;;;;18.05;10.80;;;4.60;93.90;;;;;;4916433;28;20145;-82
2020/12/05 08:49:40;;;;;;;24.10;13.35;;;4.60;93.60;;;;;;4934352;28;20034;-81
2020/12/05 08:52:05;;;;;;;21.63;12.88;;;4.90;93.60;;;;;;4935946;28;20027;-81
2020/12/05 08:54:31;;;;;;;23.45;11.95;;;5.00;93.40;;;;;;4914318;28;20031;-81
2020/12/05 08:57:10;;;;;;;23.30;13.30;;;5.10;94.10;;;;;;4942343;28;20039;-81
2020/12/05 08:59:44;;;;;;;15.75;9.75;;;5.30;92.90;;;;;;4924534;28;20022;-81
2020/12/05 09:02:10;;;;;;;18.65;11.50;;;5.20;93.00;;;;;;4924921;28;20043;-81
2020/12/05 09:04:36;;;;;;;18.38;11.73;;;5.40;92.50;;;;;;4931535;28;20044;-82
2020/12/05 09:07:14;;;;;;;19.92;11.90;;;5.50;92.50;;;;;;4915154;28;20499;-81
2020/12/05 09:09:44;;;;;;;17.45;10.98;;;5.80;92.80;;;;;;4956773;28;20422;-82
2020/12/05 09:12:16;;;;;;;18.20;10.40;;;5.90;92.30;;;;;;4930334;28;20090;-82
2020/12/05 09:14:42;;;;;;;18.58;8.40;;;5.90;92.20;;;;;;4945510;28;20479;-83
2020/12/05 09:17:27;;;;;;;14.63;8.25;;;5.90;92.10;;;;;;4946228;28;20031;-82
2020/12/05 09:19:58;;;;;;;16.45;9.30;;;6.30;91.80;;;;;;4946135;28;20525;-82
2020/12/05 09:22:28;;;;;;;14.70;8.85;;;6.30;91.10;;;;;;4932640;28;20054;-82
2020/12/05 09:24:53;;;;;;;10.07;6.63;;;6.00;91.60;;;;;;4932909;28;20403;-82
2020/12/05 09:27:19;;;;;;;12.77;6.53;;;6.30;91.50;;;;;;4942834;28;20041;-80
2020/12/05 09:29:44;;;;;;;9.93;4.78;;;6.50;91.00;;;;;;4912498;28;20038;-81
2020/12/05 09:32:10;;;;;;;10.18;5.47;;;6.60;90.90;;;;;;4932212;28;20038;-82
2020/12/05 09:34:36;;;;;;;10.07;4.85;;;6.80;90.00;;;;;;4945194;28;20041;-81
2020/12/05 09:37:11;;;;;;;10.55;6.10;;;6.80;89.80;;;;;;4929798;28;20035;-82
2020/12/05 09:39:38;;;;;;;10.77;4.63;;;6.90;90.20;;;;;;4948008;28;20065;-81
2020/12/05 09:42:03;;;;;;;6.68;4.72;;;7.10;88.60;;;;;;4909223;28;20035;-81
2020/12/05 09:44:29;;;;;;;5.32;3.45;;;7.10;89.00;;;;;;4930020;28;20033;-82
2020/12/05 09:46:54;;;;;;;5.97;3.92;;;7.20;88.60;;;;;;4927898;28;20105;-82
2020/12/05 09:49:20;;;;;;;6.30;4.15;;;7.50;87.10;;;;;;4930219;28;20114;-81
2020/12/05 09:51:46;;;;;;;7.25;3.28;;;7.60;86.80;;;;;;4939550;28;20540;-81
2020/12/05 09:54:12;;;;;;;6.45;3.90;;;7.60;86.30;;;;;;4950225;28;20471;-81
2020/12/05 09:56:37;;;;;;;7.30;4.35;;;7.70;86.70;;;;;;4914816;28;20073;-81
2020/12/05 09:59:03;;;;;;;5.53;3.45;;;7.70;85.50;;;;;;4929188;28;20026;-81
2020/12/05 10:01:29;;;;;;;6.18;3.42;;;7.80;85.30;;;;;;4914198;28;20057;-81
2020/12/05 10:03:54;;;;;;;5.70;3.50;;;7.70;85.40;;;;;;4940082;28;20041;-81
2020/12/05 10:06:20;;;;;;;3.30;2.45;;;7.90;84.80;;;;;;4938156;28;20384;-81
2020/12/05 10:08:46;;;;;;;5.95;2.88;;;8.00;84.30;;;;;;4955756;28;20108;-81
2020/12/05 10:11:11;;;;;;;7.57;4.32;;;8.00;84.20;;;;;;4914240;28;20054;-81
2020/12/05 10:13:37;;;;;;;2.85;1.52;;;8.10;85.10;;;;;;4948294;28;20128;-81
2020/12/05 10:16:02;;;;;;;3.55;2.78;;;8.10;84.10;;;;;;4929040;28;20487;-81
2020/12/05 10:18:28;;;;;;;4.85;4.05;;;8.10;84.50;;;;;;4913084;28;20511;-81
2020/12/05 10:20:53;;;;;;;6.18;3.50;;;8.20;85.80;;;;;;4927699;28;20039;-81
2020/12/05 10:23:19;;;;;;;4.55;3.50;;;8.30;85.00;;;;;;4930796;28;20953;-81
2020/12/05 10:25:44;;;;;;;6.65;4.22;;;8.80;84.30;;;;;;4943132;28;20026;-81
2020/12/05 10:28:10;;;;;;;5.85;3.55;;;8.70;84.30;;;;;;4916949;28;20027;-81
2020/12/05 10:30:35;;;;;;;5.35;3.35;;;9.00;83.10;;;;;;4954356;28;20018;-81
2020/12/05 10:33:01;;;;;;;5.85;3.65;;;9.00;81.10;;;;;;4929668;28;20023;-81
2020/12/05 10:35:26;;;;;;;4.50;3.55;;;8.70;83.30;;;;;;4931748;28;20027;-81
2020/12/05 10:37:52;;;;;;;4.10;3.33;;;9.00;83.80;;;;;;4940332;28;20022;-81
2020/12/05 10:40:17;;;;;;;5.68;2.88;;;9.20;83.40;;;;;;4942639;28;20027;-81
2020/12/05 10:42:43;;;;;;;5.38;3.22;;;9.20;83.00;;;;;;4928250;28;20023;-81
2020/12/05 10:45:08;;;;;;;3.90;2.72;;;9.20;82.50;;;;;;4928272;28;20027;-81
2020/12/05 10:47:34;;;;;;;4.97;2.97;;;9.20;81.80;;;;;;4930536;28;20034;-81
2020/12/05 10:49:59;;;;;;;2.92;1.85;;;9.40;82.20;;;;;;4916915;28;20441;-82
2020/12/05 10:52:25;;;;;;;3.50;2.80;;;9.50;79.30;;;;;;4961430;28;20565;-82
2020/12/05 10:54:50;;;;;;;4.65;3.10;;;9.50;79.50;;;;;;4942703;28;20085;-82
2020/12/05 10:57:16;;;;;;;4.30;2.45;;;9.10;82.10;;;;;;4943100;28;20398;-81
2020/12/05 10:59:41;;;;;;;1.83;1.30;;;9.20;79.60;;;;;;4945442;28;20053;-81
2020/12/05 11:02:07;;;;;;;4.78;2.60;;;9.40;77.50;;;;;;4916562;28;20058;-81
2020/12/05 11:04:32;;;;;;;3.20;1.92;;;9.10;78.00;;;;;;4935666;28;20110;-82
2020/12/05 11:06:58;;;;;;;4.13;2.20;;;9.00;79.20;;;;;;4943632;28;20038;-82
2020/12/05 11:09:24;;;;;;;3.80;2.13;;;8.90;78.90;;;;;;4956035;28;20030;-81
2020/12/05 11:11:49;;;;;;;4.78;2.50;;;8.90;79.40;;;;;;4930987;28;20539;-82
2020/12/05 11:14:15;;;;;;;6.88;2.45;;;8.90;78.00;;;;;;4942194;28;20056;-81
2020/12/05 11:16:40;;;;;;;3.28;2.65;;;8.90;78.00;;;;;;4948819;28;20026;-81
2020/12/05 11:19:06;;;;;;;3.70;2.88;;;8.80;79.00;;;;;;4930298;28;20046;-81
2020/12/05 11:21:31;;;;;;;2.92;2.20;;;8.80;78.40;;;;;;4917713;28;20122;-81
2020/12/05 11:23:57;;;;;;;3.65;2.53;;;8.70;78.60;;;;;;4947611;28;20398;-81
2020/12/05 11:26:23;;;;;;;3.30;2.38;;;8.70;78.50;;;;;;4956493;28;20039;-80
2020/12/05 11:28:49;;;;;;;5.00;2.72;;;8.60;79.50;;;;;;4918067;28;20043;-81
2020/12/05 11:31:14;;;;;;;4.38;2.33;;;8.40;80.70;;;;;;4934758;28;20126;-80
2020/12/05 11:33:40;;;;;;;2.08;1.60;;;8.40;78.50;;;;;;4958689;28;20113;-80
2020/12/05 11:36:06;;;;;;;1.10;0.95;;;8.40;78.40;;;;;;4919202;28;20035;-80
2020/12/05 11:38:31;;;;;;;2.00;1.70;;;8.40;77.60;;;;;;4935448;28;20522;-80
2020/12/05 11:40:57;;;;;;;2.20;1.55;;;8.20;77.60;;;;;;4944953;28;20035;-80
2020/12/05 11:43:22;;;;;;;0.70;0.50;;;8.20;77.50;;;;;;4944794;28;20113;-80
2020/12/05 11:45:48;;;;;;;1.23;0.70;;;8.10;76.80;;;;;;4913589;28;20561;-82
2020/12/05 11:48:13;;;;;;;1.67;1.10;;;8.10;77.00;;;;;;4922339;28;20483;-81
2020/12/05 11:50:39;;;;;;;1.50;1.30;;;8.00;76.80;;;;;;4930143;28;20101;-81
2020/12/05 11:53:06;;;;;;;5.13;1.58;;;7.90;76.90;;;;;;4928904;28;20054;-80
2020/12/05 11:55:32;;;;;;;2.80;1.60;;;7.90;76.90;;;;;;4919458;28;20729;-81
2020/12/05 11:57:58;;;;;;;1.50;1.38;;;7.90;76.40;;;;;;4943646;28;20045;-81
2020/12/05 12:00:25;;;;;;;1.48;1.30;;;7.90;76.80;;;;;;4955335;28;20030;-81
2020/12/05 12:02:51;;;;;;;1.63;1.02;;;8.00;77.30;;;;;;4942048;28;20030;-81
2020/12/05 12:05:16;;;;;;;1.52;1.13;;;8.20;76.10;;;;;;4937927;28;20039;-81
2020/12/05 12:07:42;;;;;;;1.23;0.73;;;8.30;74.90;;;;;;4961878;28;20061;-81
2020/12/05 12:10:10;;;;;;;2.42;1.20;;;8.60;74.80;;;;;;4944899;28;20508;-81
2020/12/05 12:12:36;;;;;;;1.60;1.20;;;8.60;73.80;;;;;;4915154;28;20038;-81
2020/12/05 12:15:01;;;;;;;1.80;1.13;;;8.50;74.00;;;;;;4914195;28;20155;-81
2020/12/05 12:17:27;;;;;;;0.85;0.45;;;8.60;74.00;;;;;;4917764;28;20255;-81
2020/12/05 12:19:52;;;;;;;1.63;1.15;;;8.80;73.10;;;;;;4953628;28;20596;-80
2020/12/05 12:22:18;;;;;;;1.13;0.93;;;8.90;72.90;;;;;;4957518;28;20031;-81
2020/12/05 12:24:43;;;;;;;1.08;0.98;;;9.00;71.20;;;;;;4942481;28;20041;-81
2020/12/05 12:27:09;;;;;;;1.95;1.50;;;9.10;71.10;;;;;;4917239;28;20038;-82
2020/12/05 12:29:34;;;;;;;4.88;1.17;;;9.20;71.30;;;;;;4920197;28;20092;-82
2020/12/05 12:32:00;;;;;;;3.10;0.70;;;9.20;72.50;;;;;;4932879;28;20030;-82
2020/12/05 12:34:26;;;;;;;1.40;1.27;;;9.00;72.50;;;;;;4918826;28;20030;-82
2020/12/05 12:36:51;;;;;;;3.63;1.95;;;9.10;71.30;;;;;;4961101;28;20471;-81
2020/12/05 12:39:18;;;;;;;2.13;1.42;;;9.10;73.30;;;;;;4946372;28;20109;-81
2020/12/05 12:41:43;;;;;;;1.33;1.13;;;9.10;73.30;;;;;;4957396;28;20038;-82
2020/12/05 12:44:09;;;;;;;2.30;1.33;;;9.20;73.40;;;;;;4932194;28;20038;-81